This is the latest recevied weather packets stored in our database for station/object K4KMJ. If no packets are shown the sender has not sent any weather packets the latest 10 day(s).
| Time | Temp. | Humidity | Pressure | Rain* | Wind** | Luminosity | Snow |
|---|---|---|---|---|---|---|---|
| 1777502502 | 31.11° C | 53% | 1013 hPa | 0 mm | - | 119 W/m² | - |
| 1777502199 | 31.11° C | 54% | 1013 hPa | 0 mm | - | 131 W/m² | - |
| 1777501897 | 31.11° C | 53% | 1013 hPa | 0 mm | - | 61 W/m² | - |
| 1777501593 | 31.67° C | 50% | 1013.1 hPa | 0 mm | - | 171 W/m² | - |
| 1777501290 | 31.67° C | 50% | 1013.1 hPa | 0 mm | - | 182 W/m² | - |
| 1777500988 | 32.22° C | 47% | 1013.2 hPa | 0 mm | - | 206 W/m² | - |
| 1777500686 | 32.78° C | 48% | 1013.1 hPa | 0 mm | - | 213 W/m² | - |
| 1777500382 | 32.22° C | 47% | 1013.1 hPa | 0 mm | - | 228 W/m² | - |
| 1777500078 | 32.22° C | 47% | 1013.2 hPa | 0 mm | - | 239 W/m² | - |
| 1777499775 | 32.78° C | 47% | 1013.2 hPa | 0 mm | - | 255 W/m² | - |
| 1777499471 | 32.22° C | 48% | 1013.2 hPa | 0 mm | - | 278 W/m² | - |
| 1777499169 | 31.67° C | 49% | 1013.2 hPa | 0 mm | - | 299 W/m² | - |
| 1777498866 | 32.78° C | 48% | 1013.1 hPa | 0 mm | - | 326 W/m² | - |
| 1777498562 | 31.67° C | 50% | 1013.5 hPa | 0 mm | - | 328 W/m² | - |
| 1777498258 | 31.67° C | 49% | 1013.6 hPa | 0 mm | - | 329 W/m² | - |
| 1777497957 | 32.22° C | 48% | 1013.4 hPa | 0 mm | - | 348 W/m² | - |
| 1777497652 | 32.78° C | 47% | 1013.5 hPa | 0 mm | - | 370 W/m² | - |
| 1777497349 | 33.33° C | 47% | 1013.5 hPa | 0 mm | - | 375 W/m² | - |
| 1777497045 | 32.78° C | 48% | 1013.4 hPa | 0 mm | - | 374 W/m² | - |
| 1777496742 | 32.22° C | 49% | 1013.6 hPa | 0 mm | - | 369 W/m² | - |
| 1777496438 | 32.78° C | 47% | 1013.7 hPa | 0 mm | - | 397 W/m² | - |
| 1777496136 | 32.78° C | 48% | 1013.9 hPa | 0 mm | - | 368 W/m² | - |
| 1777495831 | 31.67° C | 49% | 1014 hPa | 0 mm | - | 355 W/m² | - |
| 1777495527 | 31.67° C | 50% | 1013.8 hPa | 0 mm | - | 337 W/m² | - |
| 1777495224 | 32.22° C | 50% | 1013.9 hPa | 0 mm | - | 404 W/m² | - |
* Rain latest hour (hover to see other rain measurements)
** Current wind speed in m/s (hover to see current wind gust speed)